sensor_id;sensor_type;location;lat;lon;timestamp;temperature;humidity
6355;DHT22;3210;48.708;9.030;2023-03-03T00:01:10;0.60;99.90
6355;DHT22;3210;48.708;9.030;2023-03-03T00:03:37;0.50;99.90
6355;DHT22;3210;48.708;9.030;2023-03-03T00:06:05;0.50;99.90
6355;DHT22;3210;48.708;9.030;2023-03-03T00:08:35;0.40;99.90
6355;DHT22;3210;48.708;9.030;2023-03-03T00:11:03;0.50;99.90
6355;DHT22;3210;48.708;9.030;2023-03-03T00:13:32;0.50;99.90
6355;DHT22;3210;48.708;9.030;2023-03-03T00:16:12;0.40;99.90
6355;DHT22;3210;48.708;9.030;2023-03-03T00:18:41;0.40;99.90
6355;DHT22;3210;48.708;9.030;2023-03-03T00:21:27;0.40;99.90
6355;DHT22;3210;48.708;9.030;2023-03-03T00:24:04;0.40;99.90
6355;DHT22;3210;48.708;9.030;2023-03-03T00:26:37;0.30;99.90
6355;DHT22;3210;48.708;9.030;2023-03-03T00:29:29;0.40;99.90
6355;DHT22;3210;48.708;9.030;2023-03-03T00:32:15;0.30;99.90
6355;DHT22;3210;48.708;9.030;2023-03-03T00:34:43;0.40;99.90
6355;DHT22;3210;48.708;9.030;2023-03-03T00:37:22;0.30;99.90
6355;DHT22;3210;48.708;9.030;2023-03-03T00:39:50;0.30;99.90
6355;DHT22;3210;48.708;9.030;2023-03-03T00:42:18;0.20;99.90
6355;DHT22;3210;48.708;9.030;2023-03-03T00:44:45;0.10;99.90
6355;DHT22;3210;48.708;9.030;2023-03-03T00:47:23;0.10;99.90
6355;DHT22;3210;48.708;9.030;2023-03-03T00:49:51;0.10;99.90
6355;DHT22;3210;48.708;9.030;2023-03-03T00:52:19;0.00;99.90
6355;DHT22;3210;48.708;9.030;2023-03-03T00:54:46;0.00;99.90
6355;DHT22;3210;48.708;9.030;2023-03-03T00:57:14;0.10;99.90
6355;DHT22;3210;48.708;9.030;2023-03-03T00:59:41;0.10;99.90
6355;DHT22;3210;48.708;9.030;2023-03-03T01:02:08;0.00;99.90
6355;DHT22;3210;48.708;9.030;2023-03-03T01:04:35;-0.20;99.90
6355;DHT22;3210;48.708;9.030;2023-03-03T01:07:01;-0.30;99.90
6355;DHT22;3210;48.708;9.030;2023-03-03T01:09:28;-0.30;99.90
6355;DHT22;3210;48.708;9.030;2023-03-03T01:11:55;-0.40;99.90
6355;DHT22;3210;48.708;9.030;2023-03-03T01:14:23;-0.50;99.90
6355;DHT22;3210;48.708;9.030;2023-03-03T01:16:50;-0.50;99.90
6355;DHT22;3210;48.708;9.030;2023-03-03T01:19:17;-0.60;99.90
6355;DHT22;3210;48.708;9.030;2023-03-03T01:21:43;-0.60;99.90
6355;DHT22;3210;48.708;9.030;2023-03-03T01:24:10;-0.60;99.90
6355;DHT22;3210;48.708;9.030;2023-03-03T01:26:37;-0.70;99.90
6355;DHT22;3210;48.708;9.030;2023-03-03T01:29:04;-0.80;99.90
6355;DHT22;3210;48.708;9.030;2023-03-03T01:31:32;-0.80;99.90
6355;DHT22;3210;48.708;9.030;2023-03-03T01:33:59;-0.90;99.90
6355;DHT22;3210;48.708;9.030;2023-03-03T01:36:27;-0.90;99.90
6355;DHT22;3210;48.708;9.030;2023-03-03T01:38:54;-1.00;99.90
6355;DHT22;3210;48.708;9.030;2023-03-03T01:41:21;-1.00;99.90
6355;DHT22;3210;48.708;9.030;2023-03-03T01:43:49;-1.10;99.90
6355;DHT22;3210;48.708;9.030;2023-03-03T01:46:43;-1.10;99.90
6355;DHT22;3210;48.708;9.030;2023-03-03T01:49:13;-1.20;99.90
6355;DHT22;3210;48.708;9.030;2023-03-03T01:51:47;-1.20;1.00
6355;DHT22;3210;48.708;9.030;2023-03-03T01:54:19;-1.20;1.00
6355;DHT22;3210;48.708;9.030;2023-03-03T01:56:48;-1.20;99.90
6355;DHT22;3210;48.708;9.030;2023-03-03T01:59:17;-1.20;1.00
6355;DHT22;3210;48.708;9.030;2023-03-03T02:01:47;-1.20;99.90
6355;DHT22;3210;48.708;9.030;2023-03-03T02:04:15;-1.20;99.90
6355;DHT22;3210;48.708;9.030;2023-03-03T02:06:45;-1.20;99.90
6355;DHT22;3210;48.708;9.030;2023-03-03T02:09:16;-1.40;99.90
6355;DHT22;3210;48.708;9.030;2023-03-03T02:11:46;-1.40;1.00
6355;DHT22;3210;48.708;9.030;2023-03-03T02:14:15;-1.50;1.00
6355;DHT22;3210;48.708;9.030;2023-03-03T02:16:42;-1.50;1.00
6355;DHT22;3210;48.708;9.030;2023-03-03T02:19:16;-1.50;1.00
6355;DHT22;3210;48.708;9.030;2023-03-03T02:21:45;-1.50;1.00
6355;DHT22;3210;48.708;9.030;2023-03-03T02:24:17;-1.60;1.00
6355;DHT22;3210;48.708;9.030;2023-03-03T02:26:47;-1.60;1.00
6355;DHT22;3210;48.708;9.030;2023-03-03T02:29:15;-1.50;1.00
6355;DHT22;3210;48.708;9.030;2023-03-03T02:31:41;-1.60;1.00
6355;DHT22;3210;48.708;9.030;2023-03-03T02:34:08;-1.60;1.00
6355;DHT22;3210;48.708;9.030;2023-03-03T02:36:37;-1.50;1.00
6355;DHT22;3210;48.708;9.030;2023-03-03T02:39:07;-1.60;1.00
6355;DHT22;3210;48.708;9.030;2023-03-03T02:41:38;-1.60;1.00
6355;DHT22;3210;48.708;9.030;2023-03-03T02:44:08;-1.70;1.00
6355;DHT22;3210;48.708;9.030;2023-03-03T02:46:37;-1.70;1.00
6355;DHT22;3210;48.708;9.030;2023-03-03T02:49:06;-1.70;1.00
6355;DHT22;3210;48.708;9.030;2023-03-03T02:51:33;-1.70;1.00
6355;DHT22;3210;48.708;9.030;2023-03-03T02:54:01;-1.60;1.00
6355;DHT22;3210;48.708;9.030;2023-03-03T02:56:27;-1.60;1.00
6355;DHT22;3210;48.708;9.030;2023-03-03T02:58:54;-1.60;1.00
6355;DHT22;3210;48.708;9.030;2023-03-03T03:01:23;-1.60;1.00
6355;DHT22;3210;48.708;9.030;2023-03-03T03:03:49;-1.50;1.00
6355;DHT22;3210;48.708;9.030;2023-03-03T03:06:16;-1.40;1.00
6355;DHT22;3210;48.708;9.030;2023-03-03T03:08:43;-1.40;1.00
6355;DHT22;3210;48.708;9.030;2023-03-03T03:11:10;-1.30;1.00
6355;DHT22;3210;48.708;9.030;2023-03-03T03:13:36;-1.30;1.00
6355;DHT22;3210;48.708;9.030;2023-03-03T03:16:04;-1.20;1.00
6355;DHT22;3210;48.708;9.030;2023-03-03T03:18:32;-1.10;1.00
6355;DHT22;3210;48.708;9.030;2023-03-03T03:21:05;-1.00;1.00
6355;DHT22;3210;48.708;9.030;2023-03-03T03:23:33;-1.00;99.90
6355;DHT22;3210;48.708;9.030;2023-03-03T03:26:01;-0.90;99.90
6355;DHT22;3210;48.708;9.030;2023-03-03T03:28:27;-0.90;99.90
6355;DHT22;3210;48.708;9.030;2023-03-03T03:30:54;-0.80;99.90
6355;DHT22;3210;48.708;9.030;2023-03-03T03:33:21;-0.80;99.90
6355;DHT22;3210;48.708;9.030;2023-03-03T03:35:50;-0.70;99.90
6355;DHT22;3210;48.708;9.030;2023-03-03T03:38:17;-0.70;99.90
6355;DHT22;3210;48.708;9.030;2023-03-03T03:40:44;-0.60;99.90
6355;DHT22;3210;48.708;9.030;2023-03-03T03:43:10;-0.60;99.90
6355;DHT22;3210;48.708;9.030;2023-03-03T03:45:37;-0.50;99.90
6355;DHT22;3210;48.708;9.030;2023-03-03T03:48:04;-0.50;99.90
6355;DHT22;3210;48.708;9.030;2023-03-03T03:50:31;-0.50;99.90
6355;DHT22;3210;48.708;9.030;2023-03-03T03:52:59;-0.40;99.90
6355;DHT22;3210;48.708;9.030;2023-03-03T03:55:26;-0.40;99.90
6355;DHT22;3210;48.708;9.030;2023-03-03T03:57:54;-0.30;99.90
6355;DHT22;3210;48.708;9.030;2023-03-03T04:00:22;-0.30;99.90
6355;DHT22;3210;48.708;9.030;2023-03-03T04:02:49;-0.30;99.90
6355;DHT22;3210;48.708;9.030;2023-03-03T04:05:16;-0.20;99.90
6355;DHT22;3210;48.708;9.030;2023-03-03T04:07:44;-0.20;99.90
6355;DHT22;3210;48.708;9.030;2023-03-03T04:10:12;-0.20;99.90
6355;DHT22;3210;48.708;9.030;2023-03-03T04:12:39;-0.20;99.90
6355;DHT22;3210;48.708;9.030;2023-03-03T04:15:08;-0.10;99.90
6355;DHT22;3210;48.708;9.030;2023-03-03T04:17:35;-0.10;99.90
6355;DHT22;3210;48.708;9.030;2023-03-03T04:20:03;-0.10;99.90
6355;DHT22;3210;48.708;9.030;2023-03-03T04:22:30;0.00;99.90
6355;DHT22;3210;48.708;9.030;2023-03-03T04:24:58;0.00;99.90
6355;DHT22;3210;48.708;9.030;2023-03-03T04:27:26;0.00;99.90
6355;DHT22;3210;48.708;9.030;2023-03-03T04:29:53;0.00;99.90
6355;DHT22;3210;48.708;9.030;2023-03-03T04:32:20;0.00;99.90
6355;DHT22;3210;48.708;9.030;2023-03-03T04:34:46;0.00;99.90
6355;DHT22;3210;48.708;9.030;2023-03-03T04:37:13;0.00;99.90
6355;DHT22;3210;48.708;9.030;2023-03-03T04:39:40;0.10;99.90
6355;DHT22;3210;48.708;9.030;2023-03-03T04:42:07;0.10;99.90
6355;DHT22;3210;48.708;9.030;2023-03-03T04:44:35;0.20;99.90
6355;DHT22;3210;48.708;9.030;2023-03-03T04:47:02;0.20;99.90
6355;DHT22;3210;48.708;9.030;2023-03-03T04:49:28;0.10;99.90
6355;DHT22;3210;48.708;9.030;2023-03-03T04:51:56;0.10;99.90
6355;DHT22;3210;48.708;9.030;2023-03-03T04:54:23;0.10;99.90
6355;DHT22;3210;48.708;9.030;2023-03-03T04:56:49;0.10;99.90
6355;DHT22;3210;48.708;9.030;2023-03-03T04:59:16;0.20;99.90
6355;DHT22;3210;48.708;9.030;2023-03-03T05:01:44;0.30;99.90
6355;DHT22;3210;48.708;9.030;2023-03-03T05:04:11;0.30;99.90
6355;DHT22;3210;48.708;9.030;2023-03-03T05:06:38;0.30;99.90
6355;DHT22;3210;48.708;9.030;2023-03-03T05:09:05;0.30;99.90
6355;DHT22;3210;48.708;9.030;2023-03-03T05:11:32;0.30;99.90
6355;DHT22;3210;48.708;9.030;2023-03-03T05:13:59;0.30;99.90
6355;DHT22;3210;48.708;9.030;2023-03-03T05:16:27;0.30;99.90
6355;DHT22;3210;48.708;9.030;2023-03-03T05:18:55;0.30;99.90
6355;DHT22;3210;48.708;9.030;2023-03-03T05:21:22;0.40;99.90
6355;DHT22;3210;48.708;9.030;2023-03-03T05:23:49;0.40;99.90
6355;DHT22;3210;48.708;9.030;2023-03-03T05:26:15;0.40;99.90
6355;DHT22;3210;48.708;9.030;2023-03-03T05:28:42;0.40;99.90
6355;DHT22;3210;48.708;9.030;2023-03-03T05:31:09;0.40;99.90
6355;DHT22;3210;48.708;9.030;2023-03-03T05:33:36;0.40;99.90
6355;DHT22;3210;48.708;9.030;2023-03-03T05:36:04;0.60;99.90
6355;DHT22;3210;48.708;9.030;2023-03-03T05:38:31;0.60;99.90
6355;DHT22;3210;48.708;9.030;2023-03-03T05:40:58;0.60;99.90
6355;DHT22;3210;48.708;9.030;2023-03-03T05:43:25;0.70;99.90
6355;DHT22;3210;48.708;9.030;2023-03-03T05:45:54;0.70;99.90
6355;DHT22;3210;48.708;9.030;2023-03-03T05:48:21;0.70;99.90
6355;DHT22;3210;48.708;9.030;2023-03-03T05:50:47;0.60;99.90
6355;DHT22;3210;48.708;9.030;2023-03-03T05:53:16;0.50;99.90
6355;DHT22;3210;48.708;9.030;2023-03-03T05:55:42;0.50;99.90
6355;DHT22;3210;48.708;9.030;2023-03-03T05:58:09;0.50;99.90
6355;DHT22;3210;48.708;9.030;2023-03-03T06:00:36;0.50;99.90
6355;DHT22;3210;48.708;9.030;2023-03-03T06:03:03;0.60;99.90
6355;DHT22;3210;48.708;9.030;2023-03-03T06:05:30;0.50;99.90
6355;DHT22;3210;48.708;9.030;2023-03-03T06:07:57;0.50;99.90
6355;DHT22;3210;48.708;9.030;2023-03-03T06:10:26;0.50;99.90
6355;DHT22;3210;48.708;9.030;2023-03-03T06:12:53;0.50;99.90
6355;DHT22;3210;48.708;9.030;2023-03-03T06:15:20;0.50;99.90
6355;DHT22;3210;48.708;9.030;2023-03-03T06:17:47;0.50;99.90
6355;DHT22;3210;48.708;9.030;2023-03-03T06:20:14;0.50;99.90
6355;DHT22;3210;48.708;9.030;2023-03-03T06:22:41;0.50;99.90
6355;DHT22;3210;48.708;9.030;2023-03-03T06:25:08;0.50;99.90
6355;DHT22;3210;48.708;9.030;2023-03-03T06:27:36;0.50;99.90
6355;DHT22;3210;48.708;9.030;2023-03-03T06:30:04;0.60;99.90
6355;DHT22;3210;48.708;9.030;2023-03-03T06:32:31;0.50;99.90
6355;DHT22;3210;48.708;9.030;2023-03-03T06:34:58;0.60;99.90
6355;DHT22;3210;48.708;9.030;2023-03-03T06:37:24;0.70;99.90
6355;DHT22;3210;48.708;9.030;2023-03-03T06:39:51;0.70;99.90
6355;DHT22;3210;48.708;9.030;2023-03-03T06:42:18;0.80;99.90
6355;DHT22;3210;48.708;9.030;2023-03-03T06:44:46;0.80;99.90
6355;DHT22;3210;48.708;9.030;2023-03-03T06:47:13;0.80;99.90
6355;DHT22;3210;48.708;9.030;2023-03-03T06:49:40;0.90;99.90
6355;DHT22;3210;48.708;9.030;2023-03-03T06:52:11;1.00;99.90
6355;DHT22;3210;48.708;9.030;2023-03-03T06:54:39;1.10;99.90
6355;DHT22;3210;48.708;9.030;2023-03-03T06:57:15;1.10;99.90
6355;DHT22;3210;48.708;9.030;2023-03-03T06:59:42;1.20;99.90
6355;DHT22;3210;48.708;9.030;2023-03-03T07:02:14;1.20;99.90
6355;DHT22;3210;48.708;9.030;2023-03-03T07:04:42;1.30;99.90
6355;DHT22;3210;48.708;9.030;2023-03-03T07:07:15;1.40;99.90
6355;DHT22;3210;48.708;9.030;2023-03-03T07:09:43;1.40;99.90
6355;DHT22;3210;48.708;9.030;2023-03-03T07:12:12;1.50;99.90
6355;DHT22;3210;48.708;9.030;2023-03-03T07:14:42;1.40;99.90
6355;DHT22;3210;48.708;9.030;2023-03-03T07:17:16;1.50;99.90
6355;DHT22;3210;48.708;9.030;2023-03-03T07:19:44;1.40;99.90
6355;DHT22;3210;48.708;9.030;2023-03-03T07:22:14;1.50;99.90
6355;DHT22;3210;48.708;9.030;2023-03-03T07:24:43;1.50;99.90
6355;DHT22;3210;48.708;9.030;2023-03-03T07:27:13;1.60;99.90
6355;DHT22;3210;48.708;9.030;2023-03-03T07:29:40;1.70;99.90
6355;DHT22;3210;48.708;9.030;2023-03-03T07:32:27;1.70;99.90
6355;DHT22;3210;48.708;9.030;2023-03-03T07:34:59;1.80;99.90
6355;DHT22;3210;48.708;9.030;2023-03-03T07:37:30;1.80;99.90
6355;DHT22;3210;48.708;9.030;2023-03-03T07:40:02;1.80;92.90
6355;DHT22;3210;48.708;9.030;2023-03-03T07:42:37;1.70;69.20
6355;DHT22;3210;48.708;9.030;2023-03-03T07:45:21;1.80;88.70
6355;DHT22;3210;48.708;9.030;2023-03-03T07:47:50;2.00;62.90
6355;DHT22;3210;48.708;9.030;2023-03-03T07:50:19;2.00;54.30
6355;DHT22;3210;48.708;9.030;2023-03-03T07:52:51;1.90;39.10
6355;DHT22;3210;48.708;9.030;2023-03-03T07:55:32;2.00;37.90
6355;DHT22;3210;48.708;9.030;2023-03-03T07:58:19;2.10;30.30
6355;DHT22;3210;48.708;9.030;2023-03-03T08:03:53;2.50;28.40
6355;DHT22;3210;48.708;9.030;2023-03-03T08:06:34;2.60;25.70
6355;DHT22;3210;48.708;9.030;2023-03-03T08:09:02;2.60;21.90
6355;DHT22;3210;48.708;9.030;2023-03-03T08:11:46;2.70;25.20
6355;DHT22;3210;48.708;9.030;2023-03-03T08:14:15;2.70;17.40
6355;DHT22;3210;48.708;9.030;2023-03-03T08:16:44;2.90;18.00
6355;DHT22;3210;48.708;9.030;2023-03-03T08:19:14;2.90;16.40
6355;DHT22;3210;48.708;9.030;2023-03-03T08:21:42;2.90;17.50
6355;DHT22;3210;48.708;9.030;2023-03-03T08:24:09;3.10;16.70
6355;DHT22;3210;48.708;9.030;2023-03-03T08:26:36;3.20;17.20
6355;DHT22;3210;48.708;9.030;2023-03-03T08:29:03;3.20;25.00
6355;DHT22;3210;48.708;9.030;2023-03-03T08:31:30;3.20;1.00
6355;DHT22;3210;48.708;9.030;2023-03-03T08:33:57;3.20;3.00
6355;DHT22;3210;48.708;9.030;2023-03-03T08:36:26;3.20;1.90
6355;DHT22;3210;48.708;9.030;2023-03-03T08:38:52;3.20;2.50
6355;DHT22;3210;48.708;9.030;2023-03-03T08:41:19;3.30;1.00
6355;DHT22;3210;48.708;9.030;2023-03-03T08:43:46;3.50;1.00
6355;DHT22;3210;48.708;9.030;2023-03-03T08:46:13;3.50;1.00
6355;DHT22;3210;48.708;9.030;2023-03-03T08:48:40;3.60;1.00
6355;DHT22;3210;48.708;9.030;2023-03-03T08:51:07;3.50;1.00
6355;DHT22;3210;48.708;9.030;2023-03-03T08:53:35;3.70;1.00
6355;DHT22;3210;48.708;9.030;2023-03-03T08:56:03;3.70;1.00
6355;DHT22;3210;48.708;9.030;2023-03-03T08:58:29;3.80;1.00
6355;DHT22;3210;48.708;9.030;2023-03-03T09:00:56;3.80;1.00
6355;DHT22;3210;48.708;9.030;2023-03-03T09:03:24;3.90;1.00
6355;DHT22;3210;48.708;9.030;2023-03-03T09:05:50;4.10;1.00
6355;DHT22;3210;48.708;9.030;2023-03-03T09:08:17;4.10;1.00
6355;DHT22;3210;48.708;9.030;2023-03-03T09:10:45;4.10;1.00
6355;DHT22;3210;48.708;9.030;2023-03-03T09:13:14;4.20;6.10
6355;DHT22;3210;48.708;9.030;2023-03-03T09:15:43;4.30;1.00
6355;DHT22;3210;48.708;9.030;2023-03-03T09:18:14;4.50;1.00
6355;DHT22;3210;48.708;9.030;2023-03-03T09:20:43;4.50;1.00
6355;DHT22;3210;48.708;9.030;2023-03-03T09:23:33;4.50;1.00
6355;DHT22;3210;48.708;9.030;2023-03-03T09:26:30;4.50;1.00
6355;DHT22;3210;48.708;9.030;2023-03-03T09:29:06;4.40;1.00
6355;DHT22;3210;48.708;9.030;2023-03-03T09:31:38;4.40;1.00
6355;DHT22;3210;48.708;9.030;2023-03-03T09:34:17;4.40;1.00
6355;DHT22;3210;48.708;9.030;2023-03-03T09:36:45;4.40;1.00
6355;DHT22;3210;48.708;9.030;2023-03-03T09:39:17;4.40;1.00
6355;DHT22;3210;48.708;9.030;2023-03-03T09:42:23;4.30;1.00
6355;DHT22;3210;48.708;9.030;2023-03-03T09:45:18;4.30;1.00
6355;DHT22;3210;48.708;9.030;2023-03-03T09:48:10;4.30;1.00
6355;DHT22;3210;48.708;9.030;2023-03-03T09:50:46;4.40;1.00
6355;DHT22;3210;48.708;9.030;2023-03-03T09:53:21;4.50;1.00
6355;DHT22;3210;48.708;9.030;2023-03-03T09:55:54;4.60;1.00
6355;DHT22;3210;48.708;9.030;2023-03-03T09:58:42;4.70;1.00
6355;DHT22;3210;48.708;9.030;2023-03-03T10:01:37;4.80;1.00
6355;DHT22;3210;48.708;9.030;2023-03-03T10:04:18;5.10;1.00
6355;DHT22;3210;48.708;9.030;2023-03-03T10:06:54;5.40;1.00
6355;DHT22;3210;48.708;9.030;2023-03-03T10:09:51;5.50;1.00
6355;DHT22;3210;48.708;9.030;2023-03-03T10:12:26;5.60;1.00
6355;DHT22;3210;48.708;9.030;2023-03-03T10:15:11;5.60;1.00
6355;DHT22;3210;48.708;9.030;2023-03-03T10:17:48;5.70;1.00
6355;DHT22;3210;48.708;9.030;2023-03-03T10:20:29;5.90;1.00
6355;DHT22;3210;48.708;9.030;2023-03-03T10:23:07;5.90;1.00
6355;DHT22;3210;48.708;9.030;2023-03-03T10:25:52;6.20;1.00
6355;DHT22;3210;48.708;9.030;2023-03-03T10:28:34;6.50;1.00
6355;DHT22;3210;48.708;9.030;2023-03-03T10:31:15;6.60;1.00
6355;DHT22;3210;48.708;9.030;2023-03-03T10:33:50;7.10;1.00
6355;DHT22;3210;48.708;9.030;2023-03-03T10:36:33;7.10;1.00
6355;DHT22;3210;48.708;9.030;2023-03-03T10:39:21;7.20;1.00
6355;DHT22;3210;48.708;9.030;2023-03-03T10:42:01;7.30;1.00
6355;DHT22;3210;48.708;9.030;2023-03-03T10:44:40;7.50;1.00
6355;DHT22;3210;48.708;9.030;2023-03-03T10:47:33;7.50;1.00
6355;DHT22;3210;48.708;9.030;2023-03-03T10:50:10;7.50;1.00
6355;DHT22;3210;48.708;9.030;2023-03-03T10:52:45;7.50;1.00
6355;DHT22;3210;48.708;9.030;2023-03-03T10:55:30;7.40;1.00
6355;DHT22;3210;48.708;9.030;2023-03-03T11:01:05;7.40;1.00
6355;DHT22;3210;48.708;9.030;2023-03-03T11:04:02;7.50;1.00
6355;DHT22;3210;48.708;9.030;2023-03-03T11:06:41;7.40;1.00
6355;DHT22;3210;48.708;9.030;2023-03-03T11:09:21;7.30;1.00
6355;DHT22;3210;48.708;9.030;2023-03-03T11:11:54;7.50;1.00
6355;DHT22;3210;48.708;9.030;2023-03-03T11:14:28;7.60;1.00
6355;DHT22;3210;48.708;9.030;2023-03-03T11:17:01;7.30;1.00
6355;DHT22;3210;48.708;9.030;2023-03-03T11:19:51;7.30;1.00
6355;DHT22;3210;48.708;9.030;2023-03-03T11:22:39;7.50;1.00
6355;DHT22;3210;48.708;9.030;2023-03-03T11:25:23;7.80;1.00
6355;DHT22;3210;48.708;9.030;2023-03-03T11:28:14;7.90;1.00
6355;DHT22;3210;48.708;9.030;2023-03-03T11:31:00;7.60;1.00
6355;DHT22;3210;48.708;9.030;2023-03-03T11:33:34;7.50;1.00
6355;DHT22;3210;48.708;9.030;2023-03-03T11:36:10;7.40;1.00
6355;DHT22;3210;48.708;9.030;2023-03-03T11:38:46;7.60;1.00
6355;DHT22;3210;48.708;9.030;2023-03-03T11:41:22;7.80;1.00
6355;DHT22;3210;48.708;9.030;2023-03-03T11:43:53;8.00;1.00
6355;DHT22;3210;48.708;9.030;2023-03-03T11:46:26;7.50;1.00
6355;DHT22;3210;48.708;9.030;2023-03-03T11:48:59;7.40;1.00
6355;DHT22;3210;48.708;9.030;2023-03-03T11:51:40;7.40;1.00
6355;DHT22;3210;48.708;9.030;2023-03-03T11:54:14;7.40;1.00
6355;DHT22;3210;48.708;9.030;2023-03-03T11:56:45;7.10;1.00
6355;DHT22;3210;48.708;9.030;2023-03-03T12:02:20;7.10;1.00
6355;DHT22;3210;48.708;9.030;2023-03-03T12:04:53;7.30;1.00
6355;DHT22;3210;48.708;9.030;2023-03-03T12:07:29;7.20;1.00
6355;DHT22;3210;48.708;9.030;2023-03-03T12:10:06;7.10;1.00
6355;DHT22;3210;48.708;9.030;2023-03-03T12:12:39;7.20;1.00
6355;DHT22;3210;48.708;9.030;2023-03-03T12:15:26;7.00;1.00
6355;DHT22;3210;48.708;9.030;2023-03-03T12:21:06;7.40;1.00
6355;DHT22;3210;48.708;9.030;2023-03-03T12:23:50;7.40;1.00
6355;DHT22;3210;48.708;9.030;2023-03-03T12:26:23;7.00;1.00
6355;DHT22;3210;48.708;9.030;2023-03-03T12:28:53;7.00;1.00
6355;DHT22;3210;48.708;9.030;2023-03-03T12:31:33;7.10;1.00
6355;DHT22;3210;48.708;9.030;2023-03-03T12:34:10;7.20;1.00
6355;DHT22;3210;48.708;9.030;2023-03-03T12:36:59;7.00;1.00
6355;DHT22;3210;48.708;9.030;2023-03-03T12:39:43;7.00;1.00
6355;DHT22;3210;48.708;9.030;2023-03-03T12:42:18;7.10;1.00
6355;DHT22;3210;48.708;9.030;2023-03-03T12:44:53;7.20;1.00
6355;DHT22;3210;48.708;9.030;2023-03-03T12:47:28;7.10;1.00
6355;DHT22;3210;48.708;9.030;2023-03-03T12:50:08;7.20;1.00
6355;DHT22;3210;48.708;9.030;2023-03-03T12:52:47;7.10;1.00
6355;DHT22;3210;48.708;9.030;2023-03-03T12:55:21;7.30;1.00
6355;DHT22;3210;48.708;9.030;2023-03-03T12:57:57;7.40;1.00
6355;DHT22;3210;48.708;9.030;2023-03-03T13:00:39;7.30;1.00
6355;DHT22;3210;48.708;9.030;2023-03-03T13:03:13;7.50;1.00
6355;DHT22;3210;48.708;9.030;2023-03-03T13:05:52;7.40;1.00
6355;DHT22;3210;48.708;9.030;2023-03-03T13:08:50;7.30;1.00
6355;DHT22;3210;48.708;9.030;2023-03-03T13:11:32;7.40;1.00
6355;DHT22;3210;48.708;9.030;2023-03-03T13:14:11;7.30;1.00
6355;DHT22;3210;48.708;9.030;2023-03-03T13:16:45;7.60;1.00
6355;DHT22;3210;48.708;9.030;2023-03-03T13:19:17;7.70;1.00
6355;DHT22;3210;48.708;9.030;2023-03-03T13:21:51;7.80;1.00
6355;DHT22;3210;48.708;9.030;2023-03-03T13:24:22;7.90;1.00
6355;DHT22;3210;48.708;9.030;2023-03-03T13:26:55;7.90;1.00
6355;DHT22;3210;48.708;9.030;2023-03-03T13:29:26;7.80;1.00
6355;DHT22;3210;48.708;9.030;2023-03-03T13:31:55;7.90;1.00
6355;DHT22;3210;48.708;9.030;2023-03-03T13:34:36;8.10;1.00
6355;DHT22;3210;48.708;9.030;2023-03-03T13:37:11;7.90;1.00
6355;DHT22;3210;48.708;9.030;2023-03-03T13:39:49;7.90;1.00
6355;DHT22;3210;48.708;9.030;2023-03-03T13:42:25;7.90;1.00
6355;DHT22;3210;48.708;9.030;2023-03-03T13:44:54;7.90;1.00
6355;DHT22;3210;48.708;9.030;2023-03-03T13:47:26;7.80;1.00
6355;DHT22;3210;48.708;9.030;2023-03-03T13:50:03;7.80;1.00
6355;DHT22;3210;48.708;9.030;2023-03-03T13:52:32;7.90;1.00
6355;DHT22;3210;48.708;9.030;2023-03-03T13:55:13;7.90;1.00
6355;DHT22;3210;48.708;9.030;2023-03-03T13:57:58;7.80;1.00
6355;DHT22;3210;48.708;9.030;2023-03-03T14:00:38;7.80;1.00
6355;DHT22;3210;48.708;9.030;2023-03-03T14:06:23;8.00;1.00
6355;DHT22;3210;48.708;9.030;2023-03-03T14:09:11;7.80;1.00
6355;DHT22;3210;48.708;9.030;2023-03-03T14:11:45;7.80;1.00
6355;DHT22;3210;48.708;9.030;2023-03-03T14:14:21;7.70;1.00
6355;DHT22;3210;48.708;9.030;2023-03-03T14:16:51;7.70;1.00
6355;DHT22;3210;48.708;9.030;2023-03-03T14:19:24;7.60;1.00
6355;DHT22;3210;48.708;9.030;2023-03-03T14:22:03;7.70;1.00
6355;DHT22;3210;48.708;9.030;2023-03-03T14:24:30;7.80;1.00
6355;DHT22;3210;48.708;9.030;2023-03-03T14:27:00;7.70;1.00
6355;DHT22;3210;48.708;9.030;2023-03-03T14:29:48;7.50;1.00
6355;DHT22;3210;48.708;9.030;2023-03-03T14:32:20;7.50;1.00
6355;DHT22;3210;48.708;9.030;2023-03-03T14:34:57;7.70;1.00
6355;DHT22;3210;48.708;9.030;2023-03-03T14:37:25;7.70;1.00
6355;DHT22;3210;48.708;9.030;2023-03-03T14:40:03;7.80;1.00
6355;DHT22;3210;48.708;9.030;2023-03-03T14:42:35;7.70;1.00
6355;DHT22;3210;48.708;9.030;2023-03-03T14:45:20;7.60;1.00
6355;DHT22;3210;48.708;9.030;2023-03-03T14:47:47;7.60;1.00
6355;DHT22;3210;48.708;9.030;2023-03-03T14:50:34;7.70;1.00
6355;DHT22;3210;48.708;9.030;2023-03-03T14:53:20;7.70;1.00
6355;DHT22;3210;48.708;9.030;2023-03-03T14:55:49;7.70;1.00
6355;DHT22;3210;48.708;9.030;2023-03-03T14:58:31;7.70;1.00
6355;DHT22;3210;48.708;9.030;2023-03-03T15:01:13;7.80;1.00
6355;DHT22;3210;48.708;9.030;2023-03-03T15:03:44;7.60;1.00
6355;DHT22;3210;48.708;9.030;2023-03-03T15:06:32;7.60;1.00
6355;DHT22;3210;48.708;9.030;2023-03-03T15:09:26;7.60;1.00
6355;DHT22;3210;48.708;9.030;2023-03-03T15:11:55;7.60;1.00
6355;DHT22;3210;48.708;9.030;2023-03-03T15:14:28;7.60;1.00
6355;DHT22;3210;48.708;9.030;2023-03-03T15:17:15;7.50;1.00
6355;DHT22;3210;48.708;9.030;2023-03-03T15:19:53;7.50;1.00
6355;DHT22;3210;48.708;9.030;2023-03-03T15:22:36;7.50;1.00
6355;DHT22;3210;48.708;9.030;2023-03-03T15:25:12;7.50;1.00
6355;DHT22;3210;48.708;9.030;2023-03-03T15:27:45;7.40;1.00
6355;DHT22;3210;48.708;9.030;2023-03-03T15:30:21;7.40;1.00
6355;DHT22;3210;48.708;9.030;2023-03-03T15:32:56;7.40;1.00
6355;DHT22;3210;48.708;9.030;2023-03-03T15:35:33;7.40;1.00
6355;DHT22;3210;48.708;9.030;2023-03-03T15:38:09;7.40;1.00
6355;DHT22;3210;48.708;9.030;2023-03-03T15:40:46;7.40;1.00
6355;DHT22;3210;48.708;9.030;2023-03-03T15:43:24;7.40;1.00
6355;DHT22;3210;48.708;9.030;2023-03-03T15:46:01;7.20;1.00
6355;DHT22;3210;48.708;9.030;2023-03-03T15:48:43;7.30;1.00
6355;DHT22;3210;48.708;9.030;2023-03-03T15:51:20;7.30;1.00
6355;DHT22;3210;48.708;9.030;2023-03-03T15:54:17;7.30;1.00
6355;DHT22;3210;48.708;9.030;2023-03-03T15:56:51;7.20;1.00
6355;DHT22;3210;48.708;9.030;2023-03-03T15:59:35;7.10;1.00
6355;DHT22;3210;48.708;9.030;2023-03-03T16:02:14;7.20;1.00
6355;DHT22;3210;48.708;9.030;2023-03-03T16:04:51;7.10;1.00
6355;DHT22;3210;48.708;9.030;2023-03-03T16:07:27;7.00;1.00
6355;DHT22;3210;48.708;9.030;2023-03-03T16:10:02;7.00;1.00
6355;DHT22;3210;48.708;9.030;2023-03-03T16:12:44;7.00;1.00
6355;DHT22;3210;48.708;9.030;2023-03-03T16:15:25;6.90;1.00
6355;DHT22;3210;48.708;9.030;2023-03-03T16:18:02;6.80;1.00
6355;DHT22;3210;48.708;9.030;2023-03-03T16:20:39;6.70;1.00
6355;DHT22;3210;48.708;9.030;2023-03-03T16:23:28;6.80;1.00
6355;DHT22;3210;48.708;9.030;2023-03-03T16:26:09;6.80;1.00
6355;DHT22;3210;48.708;9.030;2023-03-03T16:28:49;6.70;1.00
6355;DHT22;3210;48.708;9.030;2023-03-03T16:31:22;6.60;1.00
6355;DHT22;3210;48.708;9.030;2023-03-03T16:33:55;6.60;1.00
6355;DHT22;3210;48.708;9.030;2023-03-03T16:36:31;6.50;1.00
6355;DHT22;3210;48.708;9.030;2023-03-03T16:39:04;6.40;1.00
6355;DHT22;3210;48.708;9.030;2023-03-03T16:41:42;6.40;1.00
6355;DHT22;3210;48.708;9.030;2023-03-03T16:44:25;6.30;1.00
6355;DHT22;3210;48.708;9.030;2023-03-03T16:47:04;6.20;1.00
6355;DHT22;3210;48.708;9.030;2023-03-03T16:49:38;6.00;1.00
6355;DHT22;3210;48.708;9.030;2023-03-03T16:52:12;6.10;1.00
6355;DHT22;3210;48.708;9.030;2023-03-03T16:54:45;6.00;1.00
6355;DHT22;3210;48.708;9.030;2023-03-03T16:57:19;5.90;1.00
6355;DHT22;3210;48.708;9.030;2023-03-03T16:59:59;5.90;1.00
6355;DHT22;3210;48.708;9.030;2023-03-03T17:02:52;5.80;1.00
6355;DHT22;3210;48.708;9.030;2023-03-03T17:05:31;5.60;1.00
6355;DHT22;3210;48.708;9.030;2023-03-03T17:08:11;5.50;1.00
6355;DHT22;3210;48.708;9.030;2023-03-03T17:10:46;5.40;1.00
6355;DHT22;3210;48.708;9.030;2023-03-03T17:13:41;5.20;1.00
6355;DHT22;3210;48.708;9.030;2023-03-03T17:16:16;5.20;1.00
6355;DHT22;3210;48.708;9.030;2023-03-03T17:18:55;5.00;1.00